Time;durP1;ratioP1;P1;durP2;ratioP2;P2;SDS_P1;SDS_P2;PMS_P1;PMS_P2;Temp;Humidity;BMP_temperature;BMP_pressure;BME280_temperature;BME280_humidity;BME280_pressure;Samples;Min_cycle;Max_cycle;Signal;HPM_P1;HPM_P2
2023/07/11 00:00:48;;;;;;;3.60;3.33;;;29.30;55.70;;;;;;5056252;28;20632;-84
2023/07/11 00:03:15;;;;;;;4.03;3.50;;;29.20;55.70;;;;;;5056310;28;20207;-84
2023/07/11 00:05:41;;;;;;;4.20;3.80;;;29.20;55.70;;;;;;5055490;28;20430;-84
2023/07/11 00:08:09;;;;;;;4.17;3.87;;;29.20;55.70;;;;;;5055085;28;20555;-84
2023/07/11 00:10:41;;;;;;;3.97;3.63;;;29.20;55.70;;;;;;5054235;28;20486;-85
2023/07/11 00:13:11;;;;;;;3.73;3.40;;;29.20;55.70;;;;;;5038623;28;20431;-84
2023/07/11 00:15:39;;;;;;;4.23;3.83;;;29.20;55.70;;;;;;5040868;28;20449;-84
2023/07/11 00:18:07;;;;;;;4.20;3.40;;;29.20;55.70;;;;;;5075417;28;20425;-84
2023/07/11 00:20:33;;;;;;;3.73;3.50;;;29.10;55.70;;;;;;5058623;28;20444;-84
2023/07/11 00:22:59;;;;;;;4.50;4.10;;;29.10;55.60;;;;;;5076023;28;20551;-90
2023/07/11 00:25:25;;;;;;;4.40;3.70;;;29.10;55.70;;;;;;5027964;28;20796;-93
2023/07/11 00:27:51;;;;;;;4.00;3.70;;;29.10;55.70;;;;;;5052830;28;20196;-93
2023/07/11 00:30:18;;;;;;;4.40;4.00;;;29.00;55.60;;;;;;5020538;28;20517;-94
2023/07/11 00:32:43;;;;;;;3.93;3.63;;;29.10;55.70;;;;;;5052946;28;20437;-95
2023/07/11 00:35:10;;;;;;;3.97;3.43;;;29.00;55.70;;;;;;5071655;28;20183;-93
2023/07/11 00:37:40;;;;;;;4.10;3.70;;;29.00;55.70;;;;;;5039954;28;20434;-95
2023/07/11 00:40:06;;;;;;;3.70;3.30;;;29.00;55.70;;;;;;5039229;28;20447;-93
2023/07/11 00:42:35;;;;;;;3.90;3.50;;;29.00;55.70;;;;;;5039997;28;20461;-94
2023/07/11 00:45:03;;;;;;;3.60;3.30;;;29.00;55.80;;;;;;5023231;28;20423;-94
2023/07/11 00:47:30;;;;;;;3.90;3.30;;;28.90;55.70;;;;;;5056121;28;20510;-95
2023/07/11 00:50:05;;;;;;;3.70;3.40;;;28.90;55.70;;;;;;5039406;28;20974;-95
2023/07/11 00:52:36;;;;;;;3.60;3.30;;;28.90;55.70;;;;;;5039487;28;20510;-94
2023/07/11 00:55:08;;;;;;;3.50;3.20;;;28.90;55.70;;;;;;5039362;28;20500;-94
2023/07/11 00:57:39;;;;;;;4.23;3.33;;;28.90;55.80;;;;;;5039496;28;20421;-95
2023/07/11 01:00:06;;;;;;;3.60;3.30;;;28.80;55.70;;;;;;5056013;28;20460;-95
2023/07/11 01:02:33;;;;;;;6.50;3.90;;;28.80;55.70;;;;;;5039269;28;20414;-94
2023/07/11 01:05:00;;;;;;;4.43;3.87;;;28.80;55.80;;;;;;5055529;28;20756;-93
2023/07/11 01:07:30;;;;;;;4.70;3.47;;;28.80;55.80;;;;;;5055457;28;20502;-95
2023/07/11 01:09:56;;;;;;;4.20;3.30;;;28.80;55.80;;;;;;5055601;28;20410;-95
2023/07/11 01:12:24;;;;;;;3.37;3.07;;;28.70;55.80;;;;;;5055737;28;20509;-95
2023/07/11 01:14:50;;;;;;;3.73;3.43;;;28.80;55.90;;;;;;5039247;28;20462;-94
2023/07/11 01:17:29;;;;;;;4.20;3.50;;;28.70;55.90;;;;;;5039077;28;20911;-95
2023/07/11 01:19:57;;;;;;;3.87;3.27;;;28.70;55.90;;;;;;5038894;28;20423;-96
2023/07/11 01:22:24;;;;;;;3.50;3.20;;;28.70;56.00;;;;;;5038778;28;20437;-95
2023/07/11 01:24:53;;;;;;;3.57;3.27;;;28.70;56.00;;;;;;5038987;28;20442;-94
2023/07/11 01:27:20;;;;;;;3.80;3.10;;;28.70;56.10;;;;;;5038716;28;20474;-95
2023/07/11 01:29:48;;;;;;;3.70;3.40;;;28.60;56.10;;;;;;5055522;28;20430;-94
2023/07/11 01:32:14;;;;;;;5.50;4.00;;;28.60;56.10;;;;;;5055461;28;20484;-95
2023/07/11 01:34:40;;;;;;;3.87;3.40;;;28.60;56.10;;;;;;5038767;28;20432;-94
2023/07/11 01:37:07;;;;;;;4.03;3.47;;;28.60;56.20;;;;;;5038949;28;20422;-95
2023/07/11 01:39:33;;;;;;;3.50;3.20;;;28.60;56.20;;;;;;5038685;28;20824;-94
2023/07/11 01:42:00;;;;;;;3.93;3.53;;;28.60;56.20;;;;;;5055686;28;20420;-95
2023/07/11 01:44:26;;;;;;;3.77;3.47;;;28.60;56.30;;;;;;5038621;28;20433;-93
2023/07/11 01:46:52;;;;;;;3.50;3.23;;;28.50;56.30;;;;;;5038413;28;20466;-94
2023/07/11 01:49:18;;;;;;;5.30;4.10;;;28.50;56.30;;;;;;5038073;28;20429;-95
2023/07/11 01:51:45;;;;;;;4.30;3.47;;;28.50;56.40;;;;;;5038244;28;20426;-95
2023/07/11 01:54:12;;;;;;;3.80;3.50;;;28.50;56.40;;;;;;5038464;28;20425;-95
2023/07/11 01:56:38;;;;;;;3.43;3.17;;;28.50;56.40;;;;;;5038218;28;20898;-95
2023/07/11 01:59:06;;;;;;;3.80;3.50;;;28.50;56.50;;;;;;5021751;28;20430;-94
2023/07/11 02:01:32;;;;;;;4.23;3.57;;;28.40;56.40;;;;;;5038172;28;20442;-94
2023/07/11 02:03:58;;;;;;;4.27;3.90;;;28.40;56.40;;;;;;5038504;28;20450;-95
2023/07/11 02:06:24;;;;;;;3.90;3.20;;;28.40;56.30;;;;;;5038263;28;20488;-95
2023/07/11 02:08:51;;;;;;;3.83;3.57;;;28.40;56.40;;;;;;5038429;28;21153;-95
2023/07/11 02:11:17;;;;;;;3.80;3.47;;;28.40;56.40;;;;;;5054998;28;20429;-94
2023/07/11 02:13:43;;;;;;;4.10;3.80;;;28.30;56.30;;;;;;5037909;28;20430;-96
2023/07/11 02:16:09;;;;;;;3.60;3.30;;;28.30;56.30;;;;;;5054610;28;20431;-95
2023/07/11 02:18:35;;;;;;;4.20;3.90;;;28.30;56.30;;;;;;5054900;28;20790;-95
2023/07/11 02:21:01;;;;;;;3.47;3.27;;;28.30;56.30;;;;;;5054578;28;20403;-94
2023/07/11 02:23:27;;;;;;;4.07;3.73;;;28.30;56.30;;;;;;5020883;28;21093;-95
2023/07/11 02:25:53;;;;;;;4.63;3.90;;;28.30;56.20;;;;;;5036996;28;20506;-95
2023/07/11 02:28:20;;;;;;;4.10;3.73;;;28.30;56.20;;;;;;5037247;28;20423;-95
2023/07/11 02:30:46;;;;;;;5.87;4.10;;;28.20;56.20;;;;;;5036908;28;20446;-94
2023/07/11 02:33:13;;;;;;;4.10;3.70;;;28.20;56.20;;;;;;5022017;28;20505;-94
2023/07/11 02:35:39;;;;;;;3.90;3.60;;;28.20;56.10;;;;;;5041356;28;21144;-95
2023/07/11 02:38:05;;;;;;;6.13;3.37;;;28.20;56.80;;;;;;5008283;28;20446;-95
2023/07/11 02:40:31;;;;;;;3.67;3.40;;;28.20;56.20;;;;;;5041099;28;20499;-95
2023/07/11 02:42:57;;;;;;;3.77;3.50;;;28.20;56.20;;;;;;5057276;28;20497;-95
2023/07/11 02:45:23;;;;;;;7.40;3.57;;;28.10;56.10;;;;;;5024288;28;20437;-94
2023/07/11 02:47:50;;;;;;;4.23;3.83;;;28.10;56.10;;;;;;5040701;28;20846;-94
2023/07/11 02:50:16;;;;;;;5.17;3.50;;;28.10;56.10;;;;;;5040986;28;20439;-95
2023/07/11 02:52:42;;;;;;;4.00;3.70;;;28.10;56.10;;;;;;5040641;28;20433;-95
2023/07/11 02:55:08;;;;;;;3.80;3.50;;;28.10;56.10;;;;;;5045359;28;20508;-95
2023/07/11 02:57:36;;;;;;;3.83;3.40;;;28.00;56.00;;;;;;5041686;28;20437;-95
2023/07/11 03:00:03;;;;;;;4.83;3.77;;;28.00;56.00;;;;;;5058154;28;20419;-96
2023/07/11 03:02:29;;;;;;;3.40;3.10;;;28.00;56.00;;;;;;5041540;28;20458;-95
2023/07/11 03:04:55;;;;;;;4.30;4.00;;;28.00;56.00;;;;;;5059331;28;20416;-95
2023/07/11 03:07:21;;;;;;;4.17;3.87;;;28.00;56.00;;;;;;5057852;28;20472;-95
2023/07/11 03:09:50;;;;;;;4.00;3.70;;;28.00;56.00;;;;;;5057841;28;20425;-93
2023/07/11 03:12:16;;;;;;;3.50;3.20;;;28.00;56.00;;;;;;5041316;28;20871;-95
2023/07/11 03:14:42;;;;;;;3.87;3.53;;;28.00;56.10;;;;;;5058056;28;20426;-95
2023/07/11 03:17:08;;;;;;;5.03;3.93;;;27.90;56.00;;;;;;5041293;28;20453;-95
2023/07/11 03:19:34;;;;;;;4.80;4.30;;;27.90;56.00;;;;;;5025177;28;20533;-95
2023/07/11 03:22:00;;;;;;;4.67;4.10;;;27.90;56.00;;;;;;5057676;28;20473;-95
2023/07/11 03:24:26;;;;;;;4.00;3.70;;;27.90;56.00;;;;;;5040935;28;20271;-95
2023/07/11 03:26:52;;;;;;;3.73;3.43;;;27.90;56.00;;;;;;5024904;28;20497;-92
2023/07/11 03:29:18;;;;;;;4.00;3.70;;;27.90;56.00;;;;;;5041327;28;20426;-95
2023/07/11 03:31:43;;;;;;;4.13;3.83;;;27.90;56.00;;;;;;5057456;28;20441;-95
2023/07/11 03:34:10;;;;;;;5.07;4.27;;;27.80;56.00;;;;;;5056781;28;20746;-94
2023/07/11 03:36:36;;;;;;;4.60;3.73;;;27.80;56.00;;;;;;5056916;28;20498;-94
2023/07/11 03:39:03;;;;;;;3.70;3.50;;;27.80;56.00;;;;;;5039507;28;20399;-94
2023/07/11 03:41:29;;;;;;;4.20;3.80;;;27.80;56.00;;;;;;5040495;28;20430;-93
2023/07/11 03:43:55;;;;;;;3.80;3.50;;;27.80;56.00;;;;;;5023614;28;20438;-92
2023/07/11 03:46:21;;;;;;;3.80;3.20;;;27.80;56.00;;;;;;5039721;28;20470;-94
2023/07/11 03:48:47;;;;;;;4.07;3.57;;;27.70;56.00;;;;;;5039917;28;20434;-95
2023/07/11 03:51:13;;;;;;;4.03;3.63;;;27.70;56.00;;;;;;5023653;28;20179;-94
2023/07/11 03:53:39;;;;;;;3.97;3.17;;;27.70;56.00;;;;;;5039862;28;20428;-94
2023/07/11 03:56:07;;;;;;;4.43;3.40;;;27.70;56.10;;;;;;5039688;28;21030;-94
2023/07/11 03:58:33;;;;;;;4.13;3.83;;;27.70;56.10;;;;;;5056296;28;20426;-94
2023/07/11 04:00:59;;;;;;;8.43;4.10;;;27.70;56.10;;;;;;5040064;28;20957;-94
2023/07/11 04:03:27;;;;;;;5.30;3.77;;;27.70;56.10;;;;;;5023346;28;20446;-94
2023/07/11 04:05:55;;;;;;;3.87;3.57;;;27.60;56.00;;;;;;5039732;28;20422;-94
2023/07/11 04:08:21;;;;;;;4.23;3.43;;;27.60;56.00;;;;;;5039565;28;20415;-94
2023/07/11 04:10:47;;;;;;;4.30;4.00;;;27.60;56.10;;;;;;5056259;28;20714;-94
2023/07/11 04:13:13;;;;;;;4.80;3.80;;;27.60;56.10;;;;;;5039648;28;20766;-95
2023/07/11 04:15:39;;;;;;;4.17;3.77;;;27.60;56.10;;;;;;5039059;28;20448;-93
2023/07/11 04:18:05;;;;;;;4.07;3.77;;;27.60;56.10;;;;;;5055917;28;20422;-92
2023/07/11 04:20:31;;;;;;;4.47;4.07;;;27.60;56.00;;;;;;5039514;28;20568;-94
2023/07/11 04:22:57;;;;;;;4.10;3.80;;;27.50;56.00;;;;;;5039384;28;21244;-94
2023/07/11 04:25:22;;;;;;;4.60;4.20;;;27.50;56.60;;;;;;5056089;28;20438;-93
2023/07/11 04:27:48;;;;;;;4.23;3.80;;;27.50;56.00;;;;;;5043138;28;20458;-94
2023/07/11 04:30:14;;;;;;;3.53;3.23;;;27.50;56.00;;;;;;5072627;28;20446;-93
2023/07/11 04:32:41;;;;;;;4.53;4.23;;;27.50;56.00;;;;;;5039409;28;20447;-95
2023/07/11 04:35:14;;;;;;;4.27;3.80;;;27.50;56.10;;;;;;5055807;28;20482;-95
2023/07/11 04:37:40;;;;;;;4.47;4.07;;;27.50;56.10;;;;;;5055662;28;20395;-95
2023/07/11 04:40:08;;;;;;;3.63;3.30;;;27.40;56.00;;;;;;5055607;28;20830;-95
2023/07/11 04:42:45;;;;;;;4.53;3.90;;;27.40;56.10;;;;;;5056273;28;20469;-95
2023/07/11 04:45:11;;;;;;;4.10;3.80;;;27.40;56.10;;;;;;5072036;28;20414;-94
2023/07/11 04:47:37;;;;;;;6.80;3.67;;;27.40;56.10;;;;;;5021091;28;20471;-94
2023/07/11 04:50:03;;;;;;;3.90;3.60;;;27.40;56.10;;;;;;5045460;28;20430;-94
2023/07/11 04:52:30;;;;;;;3.90;3.70;;;27.40;56.10;;;;;;5040862;28;20463;-93
2023/07/11 04:54:56;;;;;;;3.70;3.40;;;27.40;56.20;;;;;;5052204;28;21187;-92
2023/07/11 04:57:22;;;;;;;4.10;3.77;;;27.40;56.20;;;;;;5002520;28;20860;-94
2023/07/11 04:59:48;;;;;;;7.17;3.47;;;27.30;56.20;;;;;;5035873;28;20528;-96
2023/07/11 05:02:14;;;;;;;4.13;3.80;;;27.30;56.20;;;;;;5035585;28;20538;-94
2023/07/11 05:04:40;;;;;;;4.00;3.70;;;27.30;56.30;;;;;;5035288;28;20466;-91
2023/07/11 05:07:07;;;;;;;6.60;4.10;;;27.30;56.20;;;;;;5036336;28;20471;-93
2023/07/11 05:09:33;;;;;;;4.27;3.97;;;27.30;56.20;;;;;;5035430;28;20423;-92
2023/07/11 05:12:02;;;;;;;3.77;3.47;;;27.30;56.30;;;;;;5038436;28;20470;-95
2023/07/11 05:14:32;;;;;;;4.00;3.70;;;27.30;56.80;;;;;;5055418;28;20449;-91
2023/07/11 05:16:58;;;;;;;3.90;3.60;;;27.20;56.80;;;;;;5055212;28;20457;-93
2023/07/11 05:19:24;;;;;;;4.10;3.80;;;27.30;56.30;;;;;;5055583;28;20423;-94
2023/07/11 05:21:49;;;;;;;3.63;3.40;;;27.30;56.40;;;;;;5038397;28;20776;-93
2023/07/11 05:24:15;;;;;;;3.93;3.50;;;27.20;56.40;;;;;;5022205;28;20497;-92
2023/07/11 05:26:44;;;;;;;3.80;3.50;;;27.30;56.50;;;;;;5055963;28;20551;-94
2023/07/11 05:29:09;;;;;;;4.07;3.63;;;27.20;56.40;;;;;;5054935;28;20433;-94
2023/07/11 05:31:36;;;;;;;3.63;3.30;;;27.20;56.50;;;;;;5054718;28;20446;-92
2023/07/11 05:34:02;;;;;;;4.60;4.20;;;27.20;56.50;;;;;;5054824;28;20426;-93
2023/07/11 05:36:34;;;;;;;4.13;3.70;;;27.20;56.60;;;;;;5055412;28;20448;-91
2023/07/11 05:39:05;;;;;;;3.93;3.60;;;27.20;56.60;;;;;;5054605;28;20418;-93
2023/07/11 05:41:32;;;;;;;4.10;3.80;;;27.20;56.60;;;;;;5038206;28;20536;-93
2023/07/11 05:43:58;;;;;;;4.00;3.60;;;27.20;56.70;;;;;;5056772;28;20533;-92
2023/07/11 05:46:25;;;;;;;5.23;3.70;;;27.20;56.80;;;;;;5055441;28;20454;-93
2023/07/11 05:48:53;;;;;;;4.00;3.70;;;27.10;56.70;;;;;;5054247;28;20850;-93
2023/07/11 05:51:19;;;;;;;4.97;4.03;;;27.10;56.80;;;;;;5037913;28;20442;-94
2023/07/11 05:53:46;;;;;;;4.63;4.13;;;27.10;56.80;;;;;;5037854;28;20479;-94
2023/07/11 05:56:13;;;;;;;5.23;3.93;;;27.10;57.00;;;;;;5021437;28;20494;-93
2023/07/11 05:58:45;;;;;;;5.40;4.10;;;27.10;57.00;;;;;;5054440;28;20461;-94
2023/07/11 06:01:16;;;;;;;4.00;3.60;;;27.10;57.10;;;;;;5040897;28;20469;-95
2023/07/11 06:03:45;;;;;;;4.07;3.70;;;27.10;57.10;;;;;;5066645;28;20456;-93
2023/07/11 06:06:13;;;;;;;4.30;4.00;;;27.00;57.10;;;;;;5022807;28;20495;-95
2023/07/11 06:08:42;;;;;;;4.40;4.00;;;27.00;57.10;;;;;;5057011;28;20452;-95
2023/07/11 06:11:11;;;;;;;4.10;3.70;;;27.00;57.20;;;;;;5042541;28;20461;-93
2023/07/11 06:13:41;;;;;;;3.90;3.60;;;27.00;57.20;;;;;;5041896;28;20480;-94
2023/07/11 06:16:16;;;;;;;5.87;4.07;;;27.00;57.30;;;;;;5042089;28;20780;-94
2023/07/11 06:18:42;;;;;;;3.90;3.50;;;27.00;57.30;;;;;;5025756;28;20800;-94
2023/07/11 06:21:12;;;;;;;4.13;3.73;;;27.00;57.20;;;;;;5042196;28;20450;-96
2023/07/11 06:23:44;;;;;;;3.60;3.30;;;27.00;57.30;;;;;;5042124;28;20498;-94
2023/07/11 06:26:10;;;;;;;5.20;3.83;;;27.00;57.40;;;;;;5057847;28;20490;-91
2023/07/11 06:28:36;;;;;;;4.20;3.90;;;27.00;57.40;;;;;;5041757;28;20419;-91
2023/07/11 06:31:05;;;;;;;4.83;4.30;;;27.00;57.40;;;;;;5044031;28;20418;-91
2023/07/11 06:33:31;;;;;;;4.20;3.90;;;27.00;57.40;;;;;;5048874;28;20446;-95
2023/07/11 06:35:57;;;;;;;3.80;3.50;;;27.00;57.40;;;;;;5041864;28;20482;-92
2023/07/11 06:38:26;;;;;;;4.50;4.10;;;27.00;57.30;;;;;;5041219;28;20483;-93
2023/07/11 06:40:54;;;;;;;5.03;4.37;;;27.00;57.30;;;;;;5058209;28;20452;-94
2023/07/11 06:43:22;;;;;;;5.00;4.00;;;27.00;57.30;;;;;;5057752;28;20419;-94
2023/07/11 06:45:50;;;;;;;4.10;3.80;;;27.00;57.20;;;;;;5024652;28;20568;-94
2023/07/11 06:48:18;;;;;;;3.93;3.50;;;27.00;57.20;;;;;;5040853;28;20458;-94
2023/07/11 06:50:51;;;;;;;4.40;4.00;;;27.00;57.20;;;;;;5041707;28;20781;-94
2023/07/11 06:53:18;;;;;;;4.17;3.87;;;27.00;57.20;;;;;;5040730;28;20406;-92
2023/07/11 06:55:46;;;;;;;4.80;3.90;;;27.00;57.20;;;;;;5040871;28;20454;-95
2023/07/11 06:58:12;;;;;;;3.80;3.47;;;27.00;57.20;;;;;;5024556;28;20470;-93
2023/07/11 07:00:38;;;;;;;4.57;4.17;;;27.00;57.20;;;;;;5057347;28;20411;-92
2023/07/11 07:03:07;;;;;;;4.37;4.07;;;27.00;57.30;;;;;;5040851;28;20509;-94
2023/07/11 07:05:33;;;;;;;4.40;4.10;;;27.00;57.40;;;;;;5041203;28;20449;-91
2023/07/11 07:07:59;;;;;;;4.53;4.13;;;27.00;57.40;;;;;;5040502;28;20462;-91
2023/07/11 07:10:25;;;;;;;5.17;4.63;;;27.00;57.40;;;;;;5024060;28;20491;-93
2023/07/11 07:12:51;;;;;;;4.00;3.70;;;27.10;57.50;;;;;;5057192;28;20501;-92
2023/07/11 07:15:17;;;;;;;4.50;4.20;;;27.10;57.50;;;;;;5023755;28;20514;-90
2023/07/11 07:17:43;;;;;;;4.20;3.90;;;27.10;57.60;;;;;;5040526;28;20231;-93
2023/07/11 07:20:09;;;;;;;4.53;4.20;;;27.10;57.60;;;;;;5039729;28;20484;-93
2023/07/11 07:22:35;;;;;;;4.37;4.07;;;27.10;57.70;;;;;;5056721;28;20298;-92
2023/07/11 07:25:01;;;;;;;5.00;4.60;;;27.10;57.60;;;;;;5023795;28;20754;-90
2023/07/11 07:27:27;;;;;;;4.23;3.93;;;27.10;57.60;;;;;;5056802;28;20466;-92
2023/07/11 07:29:53;;;;;;;4.47;4.07;;;27.10;57.70;;;;;;5023993;28;20446;-90
2023/07/11 07:32:19;;;;;;;4.47;4.07;;;27.10;57.80;;;;;;5040166;28;20180;-90
2023/07/11 07:34:44;;;;;;;4.03;3.73;;;27.10;57.70;;;;;;5040022;28;20198;-92
2023/07/11 07:37:10;;;;;;;4.70;4.30;;;27.20;57.80;;;;;;5023579;28;20244;-91
2023/07/11 07:39:39;;;;;;;4.63;4.23;;;27.10;57.70;;;;;;5039955;28;20422;-92
2023/07/11 07:42:06;;;;;;;5.30;4.80;;;27.20;57.70;;;;;;5040713;28;20455;-90
2023/07/11 07:44:32;;;;;;;4.27;3.97;;;27.20;58.00;;;;;;5040236;28;20437;-91
2023/07/11 07:46:58;;;;;;;5.30;4.80;;;27.20;57.90;;;;;;5023564;28;20466;-91
2023/07/11 07:49:24;;;;;;;4.67;4.27;;;27.20;57.90;;;;;;5039663;28;20439;-91
2023/07/11 07:51:49;;;;;;;4.50;4.03;;;27.30;58.10;;;;;;5040035;28;20883;-90
2023/07/11 07:54:15;;;;;;;4.53;4.23;;;27.30;58.10;;;;;;5039376;28;20343;-90
2023/07/11 07:56:41;;;;;;;4.60;4.30;;;27.20;58.00;;;;;;5039482;28;20173;-90
2023/07/11 07:59:07;;;;;;;4.80;4.30;;;27.30;58.00;;;;;;5023342;28;20187;-92
2023/07/11 08:01:33;;;;;;;5.17;4.77;;;27.30;58.00;;;;;;5023106;28;20541;-91
2023/07/11 08:04:01;;;;;;;4.50;3.50;;;27.30;58.00;;;;;;5039347;28;20500;-89
2023/07/11 08:06:28;;;;;;;4.40;4.00;;;27.30;58.60;;;;;;5022675;28;20303;-89
2023/07/11 08:08:53;;;;;;;4.93;4.10;;;27.30;58.00;;;;;;5055505;28;20437;-89
2023/07/11 08:11:21;;;;;;;4.20;3.90;;;27.40;58.10;;;;;;5055675;28;20423;-90
2023/07/11 08:13:47;;;;;;;4.73;4.33;;;27.40;58.00;;;;;;5055683;28;20430;-89
2023/07/11 08:16:14;;;;;;;4.50;4.10;;;27.40;57.90;;;;;;5055447;28;20561;-90
2023/07/11 08:18:40;;;;;;;4.80;4.40;;;27.40;58.00;;;;;;5022646;28;20426;-89
2023/07/11 08:21:06;;;;;;;5.63;4.43;;;27.40;58.00;;;;;;5038835;28;20418;-90
2023/07/11 08:23:32;;;;;;;4.50;4.13;;;27.40;58.00;;;;;;5039070;28;20198;-90
2023/07/11 08:25:57;;;;;;;4.40;4.10;;;27.40;58.00;;;;;;5039095;28;20248;-90
2023/07/11 08:28:23;;;;;;;5.87;4.63;;;27.40;58.00;;;;;;5044296;28;20468;-89
2023/07/11 08:30:50;;;;;;;4.10;3.80;;;27.50;58.00;;;;;;5036279;28;20176;-88
2023/07/11 08:33:18;;;;;;;4.20;3.80;;;27.50;58.00;;;;;;5060690;28;20528;-89
2023/07/11 08:35:46;;;;;;;4.50;4.10;;;27.50;58.00;;;;;;5039209;28;20409;-89
2023/07/11 08:38:12;;;;;;;5.10;4.60;;;27.50;58.00;;;;;;5022354;28;20520;-91
2023/07/11 08:40:43;;;;;;;4.20;3.90;;;27.60;58.20;;;;;;5039357;28;20184;-89
2023/07/11 08:43:17;;;;;;;5.50;4.60;;;27.50;58.20;;;;;;5038618;28;20419;-88
2023/07/11 08:45:54;;;;;;;5.10;4.70;;;27.60;58.40;;;;;;5055504;28;20402;-89
2023/07/11 08:48:30;;;;;;;4.70;4.30;;;27.60;58.30;;;;;;5055883;28;20511;-89
2023/07/11 08:51:05;;;;;;;5.10;4.60;;;27.60;58.20;;;;;;5041333;28;20903;-84
2023/07/11 08:53:41;;;;;;;5.30;4.90;;;27.60;58.20;;;;;;5050538;28;20794;-84
2023/07/11 08:56:28;;;;;;;4.93;4.57;;;27.70;58.30;;;;;;5053159;28;20447;-85
2023/07/11 08:58:59;;;;;;;5.27;4.80;;;27.70;58.30;;;;;;5055875;28;20437;-83
2023/07/11 09:01:46;;;;;;;5.50;5.10;;;27.70;58.40;;;;;;5057724;28;20464;-84
2023/07/11 09:04:16;;;;;;;4.67;4.27;;;27.80;58.40;;;;;;5060473;28;20438;-86
2023/07/11 09:07:06;;;;;;;5.30;4.80;;;27.80;58.40;;;;;;5060975;28;20453;-84
2023/07/11 09:09:35;;;;;;;5.10;4.60;;;27.80;58.30;;;;;;5048159;28;20757;-83
2023/07/11 09:12:10;;;;;;;5.57;4.43;;;27.80;58.20;;;;;;5059623;28;20429;-83
2023/07/11 09:15:07;;;;;;;6.30;4.50;;;27.80;58.10;;;;;;5054195;28;20397;-83
2023/07/11 09:17:56;;;;;;;6.17;5.57;;;27.90;58.10;;;;;;5037534;28;20469;-82
2023/07/11 09:20:44;;;;;;;4.90;4.50;;;27.90;58.10;;;;;;5036106;28;20527;-83
2023/07/11 09:23:41;;;;;;;5.30;4.80;;;27.90;57.90;;;;;;5019767;28;20769;-83
2023/07/11 09:26:18;;;;;;;4.63;4.23;;;27.90;57.90;;;;;;5035762;28;20513;-82
2023/07/11 09:28:45;;;;;;;5.07;4.40;;;28.00;57.90;;;;;;5069316;28;20603;-84
2023/07/11 09:31:16;;;;;;;8.73;4.47;;;28.00;57.90;;;;;;5052530;28;20422;-82
2023/07/11 09:33:54;;;;;;;7.07;4.70;;;28.00;57.90;;;;;;5037296;28;20876;-83
2023/07/11 09:36:33;;;;;;;5.27;4.67;;;28.00;57.90;;;;;;5042650;28;20414;-82
2023/07/11 09:39:19;;;;;;;5.97;4.80;;;28.10;57.80;;;;;;5038124;28;20505;-84
2023/07/11 09:41:58;;;;;;;4.50;3.93;;;28.10;57.80;;;;;;5054965;28;20410;-83
2023/07/11 09:44:24;;;;;;;6.97;4.53;;;28.10;57.60;;;;;;5052231;28;20415;-83
2023/07/11 09:46:50;;;;;;;5.00;4.20;;;28.20;57.50;;;;;;5035594;28;20489;-83
2023/07/11 09:49:23;;;;;;;8.90;4.50;;;28.20;57.40;;;;;;5035611;28;20191;-83
2023/07/11 09:51:58;;;;;;;7.03;4.73;;;28.20;57.30;;;;;;5035745;28;20423;-84
2023/07/11 09:54:26;;;;;;;5.23;4.70;;;28.30;57.40;;;;;;5052091;28;20458;-83
2023/07/11 09:56:55;;;;;;;4.83;4.30;;;28.30;57.30;;;;;;5052206;28;20441;-85
2023/07/11 09:59:21;;;;;;;5.40;4.90;;;28.30;57.10;;;;;;5052045;28;20450;-85
2023/07/11 10:01:55;;;;;;;4.60;4.30;;;28.30;57.80;;;;;;5068341;28;20466;-83
2023/07/11 10:04:24;;;;;;;10.13;5.00;;;28.40;57.20;;;;;;5051675;28;20411;-82
2023/07/11 10:06:58;;;;;;;6.13;4.80;;;28.40;57.10;;;;;;5052814;28;20458;-84
2023/07/11 10:09:28;;;;;;;5.40;4.90;;;28.40;57.00;;;;;;5052206;28;20407;-82
2023/07/11 10:12:01;;;;;;;6.97;4.87;;;28.50;57.00;;;;;;5052714;28;20444;-83
2023/07/11 10:14:36;;;;;;;4.80;4.40;;;28.50;56.90;;;;;;5051806;28;20411;-82
2023/07/11 10:17:14;;;;;;;4.77;4.47;;;28.50;56.40;;;;;;5051792;28;20460;-82
2023/07/11 10:19:42;;;;;;;4.60;4.20;;;28.50;56.10;;;;;;5052886;28;20512;-84
2023/07/11 10:22:17;;;;;;;4.90;4.50;;;28.60;55.70;;;;;;5051830;28;20521;-83
2023/07/11 10:24:45;;;;;;;7.20;4.83;;;28.60;55.30;;;;;;5052413;28;20313;-83
2023/07/11 10:27:14;;;;;;;5.67;4.57;;;28.60;55.20;;;;;;5071340;28;21091;-83
2023/07/11 10:29:51;;;;;;;4.40;4.00;;;28.70;54.70;;;;;;5055090;28;20437;-84
2023/07/11 10:32:56;;;;;;;6.13;4.17;;;28.70;54.20;;;;;;5055797;28;20413;-83
2023/07/11 10:35:23;;;;;;;4.27;3.87;;;28.70;54.10;;;;;;5072980;28;20418;-83
2023/07/11 10:37:58;;;;;;;6.40;4.10;;;28.80;54.10;;;;;;5071953;28;20440;-84
2023/07/11 10:40:29;;;;;;;4.63;4.23;;;28.80;53.80;;;;;;5073076;28;20474;-83
2023/07/11 10:43:19;;;;;;;4.67;4.30;;;28.80;53.60;;;;;;5071824;28;20457;-82
2023/07/11 10:45:50;;;;;;;6.63;4.87;;;28.90;53.80;;;;;;5072133;28;20598;-89
2023/07/11 10:48:32;;;;;;;4.50;4.10;;;28.90;53.90;;;;;;5055197;28;20614;-83
2023/07/11 10:51:09;;;;;;;4.90;4.40;;;28.90;54.00;;;;;;5055248;28;20762;-85
2023/07/11 10:53:48;;;;;;;4.80;4.40;;;29.00;53.80;;;;;;5048575;28;20441;-84
2023/07/11 10:56:16;;;;;;;4.60;4.30;;;29.00;54.00;;;;;;5055698;28;20543;-86
2023/07/11 10:58:42;;;;;;;6.07;4.17;;;29.00;53.80;;;;;;5055448;28;20417;-85
2023/07/11 11:01:16;;;;;;;7.60;4.47;;;29.10;53.60;;;;;;5055006;28;20489;-83
2023/07/11 11:03:46;;;;;;;7.33;4.27;;;29.10;53.60;;;;;;5038856;28;20422;-83
2023/07/11 11:06:24;;;;;;;8.13;4.30;;;29.20;53.90;;;;;;5038800;28;20533;-83
2023/07/11 11:09:15;;;;;;;4.57;4.27;;;29.20;54.10;;;;;;5055183;28;20422;-83
2023/07/11 11:12:04;;;;;;;5.20;4.70;;;29.20;54.10;;;;;;5022385;28;20457;-83
2023/07/11 11:14:45;;;;;;;5.93;5.50;;;29.30;54.40;;;;;;5023918;28;20446;-84
2023/07/11 11:17:38;;;;;;;5.23;4.27;;;29.30;54.60;;;;;;5055178;28;20513;-85
2023/07/11 11:20:39;;;;;;;4.67;4.30;;;29.30;54.60;;;;;;5055276;28;20470;-86
2023/07/11 11:23:29;;;;;;;5.40;4.90;;;29.40;54.70;;;;;;5054993;28;20524;-84
2023/07/11 11:26:14;;;;;;;4.97;4.50;;;29.40;54.80;;;;;;5055869;28;20438;-84
2023/07/11 11:28:46;;;;;;;4.47;4.07;;;29.50;54.90;;;;;;5054823;28;20436;-86
2023/07/11 11:31:15;;;;;;;5.87;4.60;;;29.50;54.80;;;;;;5042624;28;20411;-85
2023/07/11 11:33:46;;;;;;;6.00;4.20;;;29.50;54.80;;;;;;5047265;28;20423;-84
2023/07/11 11:36:29;;;;;;;5.33;4.80;;;29.60;54.50;;;;;;5038520;28;20411;-84
2023/07/11 11:39:14;;;;;;;8.10;4.50;;;29.60;54.10;;;;;;5055761;28;20847;-84
2023/07/11 11:42:02;;;;;;;13.47;4.60;;;29.70;54.10;;;;;;5054617;28;20407;-86
2023/07/11 11:44:40;;;;;;;6.20;4.67;;;29.70;53.90;;;;;;5055604;28;20450;-85
2023/07/11 11:47:09;;;;;;;4.77;4.37;;;29.80;53.90;;;;;;5054917;28;20473;-83
2023/07/11 11:49:39;;;;;;;4.57;4.10;;;29.80;53.60;;;;;;5038095;28;20422;-84
2023/07/11 11:52:08;;;;;;;6.23;4.57;;;29.80;53.60;;;;;;5055218;28;20737;-84
2023/07/11 11:54:43;;;;;;;5.47;4.53;;;29.90;53.70;;;;;;5071094;28;20470;-83
2023/07/11 11:57:22;;;;;;;5.90;4.93;;;29.90;53.60;;;;;;5041055;28;20787;-84
2023/07/11 11:59:48;;;;;;;5.27;4.77;;;29.90;53.60;;;;;;5074378;28;20441;-85
2023/07/11 12:02:43;;;;;;;7.27;4.13;;;30.00;53.60;;;;;;5074535;28;20421;-84
2023/07/11 12:05:10;;;;;;;4.73;4.30;;;30.00;53.60;;;;;;5071112;28;20466;-84
2023/07/11 12:07:39;;;;;;;7.00;4.07;;;30.10;53.50;;;;;;5040220;28;20480;-86
2023/07/11 12:10:08;;;;;;;4.70;4.30;;;30.10;53.50;;;;;;5074173;28;20792;-86
2023/07/11 12:12:34;;;;;;;4.97;4.47;;;30.10;53.50;;;;;;5074185;28;20792;-85
2023/07/11 12:15:24;;;;;;;5.70;4.43;;;30.20;53.40;;;;;;5074070;28;20425;-85
2023/07/11 12:17:50;;;;;;;4.77;4.37;;;30.20;53.30;;;;;;5074907;28;20560;-83
2023/07/11 12:20:23;;;;;;;6.87;4.00;;;30.20;53.30;;;;;;5074826;28;20416;-83
2023/07/11 12:22:49;;;;;;;4.90;4.50;;;30.30;53.20;;;;;;5056059;28;20471;-86
2023/07/11 12:25:22;;;;;;;5.17;4.67;;;30.30;53.10;;;;;;5020880;28;20423;-84
2023/07/11 12:28:03;;;;;;;6.70;5.03;;;30.30;53.10;;;;;;5053496;28;20212;-84
2023/07/11 12:30:49;;;;;;;5.00;4.47;;;30.40;52.90;;;;;;5053841;28;20496;-85
2023/07/11 12:33:36;;;;;;;4.97;4.47;;;30.40;52.80;;;;;;5019937;28;20426;-85
2023/07/11 12:36:28;;;;;;;5.53;5.03;;;30.40;52.80;;;;;;5053979;28;20426;-86
2023/07/11 12:39:16;;;;;;;4.90;4.50;;;30.50;52.90;;;;;;5037844;28;20430;-86
2023/07/11 12:42:07;;;;;;;4.40;4.10;;;30.50;52.80;;;;;;5053461;28;20480;-89
2023/07/11 12:44:38;;;;;;;5.43;5.00;;;30.60;53.00;;;;;;5037598;28;20517;-86
2023/07/11 12:47:11;;;;;;;5.47;4.53;;;30.60;52.70;;;;;;5055313;28;20515;-86
2023/07/11 12:49:43;;;;;;;8.83;5.10;;;30.60;52.40;;;;;;5055274;28;20418;-85
2023/07/11 12:52:15;;;;;;;8.67;4.77;;;30.70;52.40;;;;;;5053398;28;20446;-87
2023/07/11 12:54:42;;;;;;;6.03;4.57;;;30.70;52.10;;;;;;5037110;28;20505;-85
2023/07/11 12:57:19;;;;;;;5.30;4.87;;;30.70;52.40;;;;;;5037276;28;20423;-86
2023/07/11 12:59:45;;;;;;;4.70;4.30;;;30.80;52.10;;;;;;5054497;28;20801;-86
2023/07/11 13:02:18;;;;;;;4.17;3.87;;;30.80;52.10;;;;;;5053251;28;20510;-85